sensor_id;sensor_type;location;lat;lon;timestamp;P1;durP1;ratioP1;P2;durP2;ratioP2
28613;SDS011;15806;53.548;9.964;2023-04-01T00:01:14;13.07;;;2.83;;
28613;SDS011;15806;53.548;9.964;2023-04-01T00:02:55;14.50;;;4.10;;
28613;SDS011;15806;53.548;9.964;2023-04-01T00:04:36;12.40;;;3.90;;
28613;SDS011;15806;53.548;9.964;2023-04-01T00:06:17;5.77;;;2.67;;
28613;SDS011;15806;53.548;9.964;2023-04-01T00:07:58;8.20;;;2.60;;
28613;SDS011;15806;53.548;9.964;2023-04-01T00:09:38;7.67;;;3.07;;
28613;SDS011;15806;53.548;9.964;2023-04-01T00:11:19;12.03;;;3.30;;
28613;SDS011;15806;53.548;9.964;2023-04-01T00:12:59;9.43;;;3.40;;
28613;SDS011;15806;53.548;9.964;2023-04-01T00:14:40;14.37;;;3.93;;
28613;SDS011;15806;53.548;9.964;2023-04-01T00:16:21;10.40;;;3.13;;
28613;SDS011;15806;53.548;9.964;2023-04-01T00:18:02;11.07;;;3.17;;
28613;SDS011;15806;53.548;9.964;2023-04-01T00:19:42;12.23;;;4.33;;
28613;SDS011;15806;53.548;9.964;2023-04-01T00:21:23;14.40;;;4.23;;
28613;SDS011;15806;53.548;9.964;2023-04-01T00:23:04;14.83;;;4.87;;
28613;SDS011;15806;53.548;9.964;2023-04-01T00:24:44;8.87;;;3.83;;
28613;SDS011;15806;53.548;9.964;2023-04-01T00:26:25;8.40;;;3.03;;
28613;SDS011;15806;53.548;9.964;2023-04-01T00:28:05;8.40;;;3.40;;
28613;SDS011;15806;53.548;9.964;2023-04-01T00:29:46;10.93;;;3.67;;
28613;SDS011;15806;53.548;9.964;2023-04-01T00:31:27;8.60;;;3.45;;
28613;SDS011;15806;53.548;9.964;2023-04-01T00:33:08;15.00;;;4.17;;
28613;SDS011;15806;53.548;9.964;2023-04-01T00:34:51;9.87;;;3.07;;
28613;SDS011;15806;53.548;9.964;2023-04-01T00:36:32;13.45;;;3.95;;
28613;SDS011;15806;53.548;9.964;2023-04-01T00:38:13;9.33;;;3.63;;
28613;SDS011;15806;53.548;9.964;2023-04-01T00:39:53;11.53;;;3.00;;
28613;SDS011;15806;53.548;9.964;2023-04-01T00:41:34;7.38;;;3.10;;
28613;SDS011;15806;53.548;9.964;2023-04-01T00:43:16;11.53;;;3.17;;
28613;SDS011;15806;53.548;9.964;2023-04-01T00:45:21;14.07;;;3.08;;
28613;SDS011;15806;53.548;9.964;2023-04-01T00:47:05;7.30;;;2.78;;
28613;SDS011;15806;53.548;9.964;2023-04-01T00:48:50;7.63;;;2.63;;
28613;SDS011;15806;53.548;9.964;2023-04-01T00:50:33;7.38;;;3.22;;
28613;SDS011;15806;53.548;9.964;2023-04-01T00:52:16;10.63;;;2.88;;
28613;SDS011;15806;53.548;9.964;2023-04-01T00:53:59;7.32;;;2.67;;
28613;SDS011;15806;53.548;9.964;2023-04-01T00:55:41;9.27;;;3.17;;
28613;SDS011;15806;53.548;9.964;2023-04-01T00:57:32;10.23;;;3.42;;
28613;SDS011;15806;53.548;9.964;2023-04-01T00:59:18;11.95;;;3.13;;
28613;SDS011;15806;53.548;9.964;2023-04-01T01:01:03;8.75;;;2.65;;
28613;SDS011;15806;53.548;9.964;2023-04-01T01:02:45;7.90;;;2.92;;
28613;SDS011;15806;53.548;9.964;2023-04-01T01:04:32;8.13;;;3.22;;
28613;SDS011;15806;53.548;9.964;2023-04-01T01:06:19;9.88;;;2.90;;
28613;SDS011;15806;53.548;9.964;2023-04-01T01:10:31;11.45;;;3.55;;
28613;SDS011;15806;53.548;9.964;2023-04-01T01:12:16;11.43;;;3.58;;
28613;SDS011;15806;53.548;9.964;2023-04-01T01:14:13;9.38;;;3.40;;
28613;SDS011;15806;53.548;9.964;2023-04-01T01:16:00;11.05;;;4.10;;
28613;SDS011;15806;53.548;9.964;2023-04-01T01:17:58;8.93;;;4.28;;
28613;SDS011;15806;53.548;9.964;2023-04-01T01:21:40;9.68;;;4.05;;
28613;SDS011;15806;53.548;9.964;2023-04-01T01:23:52;15.80;;;4.30;;
28613;SDS011;15806;53.548;9.964;2023-04-01T01:28:11;12.23;;;3.80;;
28613;SDS011;15806;53.548;9.964;2023-04-01T01:30:33;12.20;;;4.03;;
28613;SDS011;15806;53.548;9.964;2023-04-01T01:32:29;12.05;;;3.75;;
28613;SDS011;15806;53.548;9.964;2023-04-01T01:34:24;9.13;;;4.25;;
28613;SDS011;15806;53.548;9.964;2023-04-01T01:36:16;14.70;;;3.72;;
28613;SDS011;15806;53.548;9.964;2023-04-01T01:38:03;9.65;;;4.18;;
28613;SDS011;15806;53.548;9.964;2023-04-01T01:39:48;12.93;;;4.00;;
28613;SDS011;15806;53.548;9.964;2023-04-01T01:41:33;11.60;;;4.05;;
28613;SDS011;15806;53.548;9.964;2023-04-01T01:43:17;10.65;;;3.67;;
28613;SDS011;15806;53.548;9.964;2023-04-01T01:45:02;8.75;;;3.40;;
28613;SDS011;15806;53.548;9.964;2023-04-01T01:46:45;14.48;;;3.90;;
28613;SDS011;15806;53.548;9.964;2023-04-01T01:48:27;9.32;;;3.63;;
28613;SDS011;15806;53.548;9.964;2023-04-01T01:50:10;12.82;;;3.95;;
28613;SDS011;15806;53.548;9.964;2023-04-01T01:51:51;10.60;;;4.38;;
28613;SDS011;15806;53.548;9.964;2023-04-01T01:53:31;15.83;;;4.43;;
28613;SDS011;15806;53.548;9.964;2023-04-01T01:55:32;13.40;;;4.37;;
28613;SDS011;15806;53.548;9.964;2023-04-01T01:57:29;9.23;;;4.07;;
28613;SDS011;15806;53.548;9.964;2023-04-01T01:59:17;14.00;;;3.97;;
28613;SDS011;15806;53.548;9.964;2023-04-01T02:01:00;10.95;;;4.50;;
28613;SDS011;15806;53.548;9.964;2023-04-01T02:02:46;13.50;;;4.30;;
28613;SDS011;15806;53.548;9.964;2023-04-01T02:04:28;10.13;;;3.70;;
28613;SDS011;15806;53.548;9.964;2023-04-01T02:06:09;10.53;;;3.60;;
28613;SDS011;15806;53.548;9.964;2023-04-01T02:08:01;11.65;;;3.35;;
28613;SDS011;15806;53.548;9.964;2023-04-01T02:09:46;12.13;;;4.00;;
28613;SDS011;15806;53.548;9.964;2023-04-01T02:11:32;12.40;;;4.15;;
28613;SDS011;15806;53.548;9.964;2023-04-01T02:13:51;11.10;;;3.90;;
28613;SDS011;15806;53.548;9.964;2023-04-01T02:15:28;10.75;;;4.22;;
28613;SDS011;15806;53.548;9.964;2023-04-01T02:17:12;10.15;;;4.43;;
28613;SDS011;15806;53.548;9.964;2023-04-01T02:18:56;16.55;;;4.53;;
28613;SDS011;15806;53.548;9.964;2023-04-01T02:20:39;14.18;;;4.72;;
28613;SDS011;15806;53.548;9.964;2023-04-01T02:22:24;13.02;;;4.50;;
28613;SDS011;15806;53.548;9.964;2023-04-01T02:24:08;10.48;;;3.58;;
28613;SDS011;15806;53.548;9.964;2023-04-01T02:25:52;11.27;;;3.80;;
28613;SDS011;15806;53.548;9.964;2023-04-01T02:27:34;12.65;;;3.80;;
28613;SDS011;15806;53.548;9.964;2023-04-01T02:29:14;8.80;;;3.87;;
28613;SDS011;15806;53.548;9.964;2023-04-01T02:30:56;7.55;;;3.38;;
28613;SDS011;15806;53.548;9.964;2023-04-01T02:32:41;7.60;;;3.47;;
28613;SDS011;15806;53.548;9.964;2023-04-01T02:34:23;12.00;;;4.28;;
28613;SDS011;15806;53.548;9.964;2023-04-01T02:36:04;10.13;;;3.78;;
28613;SDS011;15806;53.548;9.964;2023-04-01T02:37:48;6.95;;;3.47;;
28613;SDS011;15806;53.548;9.964;2023-04-01T02:39:30;14.55;;;4.47;;
28613;SDS011;15806;53.548;9.964;2023-04-01T02:41:11;10.97;;;3.53;;
28613;SDS011;15806;53.548;9.964;2023-04-01T02:42:52;7.63;;;3.72;;
28613;SDS011;15806;53.548;9.964;2023-04-01T02:44:32;9.53;;;4.40;;
28613;SDS011;15806;53.548;9.964;2023-04-01T02:46:13;8.67;;;3.87;;
28613;SDS011;15806;53.548;9.964;2023-04-01T02:47:53;10.87;;;4.50;;
28613;SDS011;15806;53.548;9.964;2023-04-01T02:49:34;11.27;;;3.90;;
28613;SDS011;15806;53.548;9.964;2023-04-01T02:51:14;12.53;;;4.17;;
28613;SDS011;15806;53.548;9.964;2023-04-01T02:52:55;8.87;;;3.60;;
28613;SDS011;15806;53.548;9.964;2023-04-01T02:54:35;13.47;;;4.40;;
28613;SDS011;15806;53.548;9.964;2023-04-01T02:56:16;7.00;;;3.40;;
28613;SDS011;15806;53.548;9.964;2023-04-01T02:57:56;10.13;;;4.00;;
28613;SDS011;15806;53.548;9.964;2023-04-01T02:59:37;8.10;;;3.53;;
28613;SDS011;15806;53.548;9.964;2023-04-01T03:01:17;9.07;;;3.67;;
28613;SDS011;15806;53.548;9.964;2023-04-01T03:02:58;11.33;;;3.90;;
28613;SDS011;15806;53.548;9.964;2023-04-01T03:04:39;18.70;;;4.63;;
28613;SDS011;15806;53.548;9.964;2023-04-01T03:06:19;6.80;;;3.63;;
28613;SDS011;15806;53.548;9.964;2023-04-01T03:08:00;7.67;;;3.33;;
28613;SDS011;15806;53.548;9.964;2023-04-01T03:09:41;10.07;;;4.00;;
28613;SDS011;15806;53.548;9.964;2023-04-01T03:11:21;10.63;;;3.40;;
28613;SDS011;15806;53.548;9.964;2023-04-01T03:13:02;10.77;;;4.07;;
28613;SDS011;15806;53.548;9.964;2023-04-01T03:14:43;10.05;;;3.30;;
28613;SDS011;15806;53.548;9.964;2023-04-01T03:16:23;10.97;;;4.10;;
28613;SDS011;15806;53.548;9.964;2023-04-01T03:18:04;10.43;;;4.00;;
28613;SDS011;15806;53.548;9.964;2023-04-01T03:19:44;11.43;;;3.90;;
28613;SDS011;15806;53.548;9.964;2023-04-01T03:21:25;11.77;;;4.00;;
28613;SDS011;15806;53.548;9.964;2023-04-01T03:23:07;6.13;;;3.40;;
28613;SDS011;15806;53.548;9.964;2023-04-01T03:26:29;8.52;;;4.38;;
28613;SDS011;15806;53.548;9.964;2023-04-01T03:28:09;12.40;;;4.00;;
28613;SDS011;15806;53.548;9.964;2023-04-01T03:29:50;7.53;;;3.80;;
28613;SDS011;15806;53.548;9.964;2023-04-01T03:31:31;7.13;;;3.43;;
28613;SDS011;15806;53.548;9.964;2023-04-01T03:33:12;11.53;;;3.50;;
28613;SDS011;15806;53.548;9.964;2023-04-01T03:34:52;9.50;;;3.42;;
28613;SDS011;15806;53.548;9.964;2023-04-01T03:36:33;10.57;;;3.43;;
28613;SDS011;15806;53.548;9.964;2023-04-01T03:38:13;7.33;;;3.07;;
28613;SDS011;15806;53.548;9.964;2023-04-01T03:39:55;10.13;;;3.00;;
28613;SDS011;15806;53.548;9.964;2023-04-01T03:41:36;6.63;;;3.10;;
28613;SDS011;15806;53.548;9.964;2023-04-01T03:43:17;7.72;;;3.03;;
28613;SDS011;15806;53.548;9.964;2023-04-01T03:44:57;15.20;;;3.63;;
28613;SDS011;15806;53.548;9.964;2023-04-01T03:46:38;9.13;;;3.03;;
28613;SDS011;15806;53.548;9.964;2023-04-01T03:48:18;12.17;;;5.20;;
28613;SDS011;15806;53.548;9.964;2023-04-01T03:49:59;10.47;;;3.50;;
28613;SDS011;15806;53.548;9.964;2023-04-01T03:51:40;12.73;;;3.90;;
28613;SDS011;15806;53.548;9.964;2023-04-01T03:53:21;12.85;;;4.00;;
28613;SDS011;15806;53.548;9.964;2023-04-01T03:55:02;11.27;;;4.10;;
28613;SDS011;15806;53.548;9.964;2023-04-01T03:56:42;10.68;;;3.55;;
28613;SDS011;15806;53.548;9.964;2023-04-01T03:58:23;9.13;;;3.80;;
28613;SDS011;15806;53.548;9.964;2023-04-01T04:00:04;11.70;;;3.00;;
28613;SDS011;15806;53.548;9.964;2023-04-01T04:01:46;12.73;;;3.55;;
28613;SDS011;15806;53.548;9.964;2023-04-01T04:03:27;9.57;;;3.78;;
28613;SDS011;15806;53.548;9.964;2023-04-01T04:05:07;12.70;;;3.57;;
28613;SDS011;15806;53.548;9.964;2023-04-01T04:06:48;9.97;;;4.30;;
28613;SDS011;15806;53.548;9.964;2023-04-01T04:08:28;12.77;;;4.30;;
28613;SDS011;15806;53.548;9.964;2023-04-01T04:10:09;12.60;;;4.13;;
28613;SDS011;15806;53.548;9.964;2023-04-01T04:11:49;13.03;;;4.00;;
28613;SDS011;15806;53.548;9.964;2023-04-01T04:13:30;10.30;;;3.87;;
28613;SDS011;15806;53.548;9.964;2023-04-01T04:15:10;10.63;;;3.87;;
28613;SDS011;15806;53.548;9.964;2023-04-01T04:16:51;11.43;;;3.87;;
28613;SDS011;15806;53.548;9.964;2023-04-01T04:18:32;6.53;;;3.03;;
28613;SDS011;15806;53.548;9.964;2023-04-01T04:20:13;10.73;;;3.80;;
28613;SDS011;15806;53.548;9.964;2023-04-01T04:21:54;10.40;;;4.15;;
28613;SDS011;15806;53.548;9.964;2023-04-01T04:23:34;7.80;;;3.13;;
28613;SDS011;15806;53.548;9.964;2023-04-01T04:25:15;14.67;;;5.10;;
28613;SDS011;15806;53.548;9.964;2023-04-01T04:26:55;11.57;;;4.37;;
28613;SDS011;15806;53.548;9.964;2023-04-01T04:28:36;10.07;;;4.13;;
28613;SDS011;15806;53.548;9.964;2023-04-01T04:30:17;12.25;;;3.60;;
28613;SDS011;15806;53.548;9.964;2023-04-01T04:31:57;12.80;;;3.83;;
28613;SDS011;15806;53.548;9.964;2023-04-01T04:33:38;7.73;;;4.03;;
28613;SDS011;15806;53.548;9.964;2023-04-01T04:35:18;8.27;;;3.57;;
28613;SDS011;15806;53.548;9.964;2023-04-01T04:36:59;10.90;;;3.70;;
28613;SDS011;15806;53.548;9.964;2023-04-01T04:38:39;14.10;;;3.77;;
28613;SDS011;15806;53.548;9.964;2023-04-01T04:40:20;11.23;;;3.57;;
28613;SDS011;15806;53.548;9.964;2023-04-01T04:42:00;11.67;;;4.00;;
28613;SDS011;15806;53.548;9.964;2023-04-01T04:43:41;10.47;;;4.03;;
28613;SDS011;15806;53.548;9.964;2023-04-01T04:45:22;9.68;;;3.70;;
28613;SDS011;15806;53.548;9.964;2023-04-01T04:47:02;10.37;;;3.93;;
28613;SDS011;15806;53.548;9.964;2023-04-01T04:48:43;14.63;;;4.60;;
28613;SDS011;15806;53.548;9.964;2023-04-01T04:50:24;7.95;;;4.07;;
28613;SDS011;15806;53.548;9.964;2023-04-01T04:52:05;18.38;;;5.50;;
28613;SDS011;15806;53.548;9.964;2023-04-01T04:53:45;14.23;;;4.67;;
28613;SDS011;15806;53.548;9.964;2023-04-01T04:55:26;14.40;;;5.93;;
28613;SDS011;15806;53.548;9.964;2023-04-01T04:57:06;11.33;;;4.53;;
28613;SDS011;15806;53.548;9.964;2023-04-01T04:58:47;18.23;;;4.90;;
28613;SDS011;15806;53.548;9.964;2023-04-01T05:00:28;13.93;;;4.82;;
28613;SDS011;15806;53.548;9.964;2023-04-01T05:02:08;12.17;;;4.83;;
28613;SDS011;15806;53.548;9.964;2023-04-01T05:03:49;11.50;;;4.50;;
28613;SDS011;15806;53.548;9.964;2023-04-01T05:05:29;10.07;;;4.57;;
28613;SDS011;15806;53.548;9.964;2023-04-01T05:07:10;10.37;;;4.67;;
28613;SDS011;15806;53.548;9.964;2023-04-01T05:08:51;11.20;;;4.73;;
28613;SDS011;15806;53.548;9.964;2023-04-01T05:10:31;13.13;;;4.93;;
28613;SDS011;15806;53.548;9.964;2023-04-01T05:12:12;10.90;;;4.47;;
28613;SDS011;15806;53.548;9.964;2023-04-01T05:13:53;16.57;;;5.80;;
28613;SDS011;15806;53.548;9.964;2023-04-01T05:15:33;10.80;;;4.83;;
28613;SDS011;15806;53.548;9.964;2023-04-01T05:17:14;13.70;;;5.07;;
28613;SDS011;15806;53.548;9.964;2023-04-01T05:18:55;10.97;;;4.83;;
28613;SDS011;15806;53.548;9.964;2023-04-01T05:20:35;11.10;;;4.13;;
28613;SDS011;15806;53.548;9.964;2023-04-01T05:22:16;9.83;;;4.10;;
28613;SDS011;15806;53.548;9.964;2023-04-01T05:23:57;10.97;;;4.53;;
28613;SDS011;15806;53.548;9.964;2023-04-01T05:25:37;9.03;;;4.53;;
28613;SDS011;15806;53.548;9.964;2023-04-01T05:27:18;13.30;;;4.50;;
28613;SDS011;15806;53.548;9.964;2023-04-01T05:28:58;13.43;;;4.33;;
28613;SDS011;15806;53.548;9.964;2023-04-01T05:30:39;11.13;;;4.40;;
28613;SDS011;15806;53.548;9.964;2023-04-01T05:32:20;13.02;;;4.75;;
28613;SDS011;15806;53.548;9.964;2023-04-01T05:34:01;12.50;;;3.63;;
28613;SDS011;15806;53.548;9.964;2023-04-01T05:35:41;10.63;;;4.00;;
28613;SDS011;15806;53.548;9.964;2023-04-01T05:37:22;15.17;;;4.30;;
28613;SDS011;15806;53.548;9.964;2023-04-01T05:39:02;8.77;;;3.40;;
28613;SDS011;15806;53.548;9.964;2023-04-01T05:40:43;8.87;;;3.40;;
28613;SDS011;15806;53.548;9.964;2023-04-01T05:42:23;7.57;;;3.20;;
28613;SDS011;15806;53.548;9.964;2023-04-01T05:44:04;7.47;;;3.27;;
28613;SDS011;15806;53.548;9.964;2023-04-01T05:45:45;3.63;;;1.87;;
28613;SDS011;15806;53.548;9.964;2023-04-01T05:47:25;4.90;;;1.73;;
28613;SDS011;15806;53.548;9.964;2023-04-01T05:49:06;2.27;;;1.20;;
28613;SDS011;15806;53.548;9.964;2023-04-01T05:50:46;0.53;;;0.30;;
28613;SDS011;15806;53.548;9.964;2023-04-01T05:52:27;1.10;;;0.50;;
28613;SDS011;15806;53.548;9.964;2023-04-01T05:54:07;1.87;;;0.70;;
28613;SDS011;15806;53.548;9.964;2023-04-01T05:55:48;0.70;;;0.40;;
28613;SDS011;15806;53.548;9.964;2023-04-01T05:57:28;0.50;;;0.20;;
28613;SDS011;15806;53.548;9.964;2023-04-01T05:59:09;0.63;;;0.27;;
28613;SDS011;15806;53.548;9.964;2023-04-01T06:00:51;0.80;;;0.47;;
28613;SDS011;15806;53.548;9.964;2023-04-01T06:02:31;0.30;;;0.30;;
28613;SDS011;15806;53.548;9.964;2023-04-01T06:04:15;0.60;;;0.30;;
28613;SDS011;15806;53.548;9.964;2023-04-01T06:05:57;0.85;;;0.50;;
28613;SDS011;15806;53.548;9.964;2023-04-01T06:07:37;1.03;;;0.40;;
28613;SDS011;15806;53.548;9.964;2023-04-01T06:09:19;2.13;;;0.50;;
28613;SDS011;15806;53.548;9.964;2023-04-01T06:13:18;0.55;;;0.40;;
28613;SDS011;15806;53.548;9.964;2023-04-01T06:18:56;1.23;;;0.50;;
28613;SDS011;15806;53.548;9.964;2023-04-01T06:21:00;1.33;;;0.60;;
28613;SDS011;15806;53.548;9.964;2023-04-01T06:25:02;0.88;;;0.50;;
28613;SDS011;15806;53.548;9.964;2023-04-01T06:27:29;0.47;;;0.32;;
28613;SDS011;15806;53.548;9.964;2023-04-01T06:29:26;1.88;;;0.60;;
28613;SDS011;15806;53.548;9.964;2023-04-01T06:31:50;1.50;;;0.43;;
28613;SDS011;15806;53.548;9.964;2023-04-01T06:43:56;1.75;;;0.52;;
28613;SDS011;15806;53.548;9.964;2023-04-01T06:46:00;0.55;;;0.20;;
28613;SDS011;15806;53.548;9.964;2023-04-01T06:48:15;1.13;;;0.40;;
28613;SDS011;15806;53.548;9.964;2023-04-01T06:54:32;0.95;;;0.43;;
28613;SDS011;15806;53.548;9.964;2023-04-01T06:56:17;1.65;;;0.95;;
28613;SDS011;15806;53.548;9.964;2023-04-01T06:58:00;0.65;;;0.43;;
28613;SDS011;15806;53.548;9.964;2023-04-01T06:59:45;2.88;;;0.40;;
28613;SDS011;15806;53.548;9.964;2023-04-01T07:03:43;0.52;;;0.30;;
28613;SDS011;15806;53.548;9.964;2023-04-01T07:05:30;0.80;;;0.50;;
28613;SDS011;15806;53.548;9.964;2023-04-01T07:07:24;2.05;;;0.20;;
28613;SDS011;15806;53.548;9.964;2023-04-01T07:09:13;0.45;;;0.20;;
28613;SDS011;15806;53.548;9.964;2023-04-01T07:11:04;0.30;;;0.20;;
28613;SDS011;15806;53.548;9.964;2023-04-01T07:13:06;0.40;;;0.20;;
28613;SDS011;15806;53.548;9.964;2023-04-01T07:15:20;1.38;;;0.40;;
28613;SDS011;15806;53.548;9.964;2023-04-01T07:17:08;0.35;;;0.10;;
28613;SDS011;15806;53.548;9.964;2023-04-01T07:19:01;0.45;;;0.20;;
28613;SDS011;15806;53.548;9.964;2023-04-01T07:20:46;1.23;;;0.20;;
28613;SDS011;15806;53.548;9.964;2023-04-01T07:24:37;0.57;;;0.30;;
28613;SDS011;15806;53.548;9.964;2023-04-01T07:26:22;1.02;;;0.30;;
28613;SDS011;15806;53.548;9.964;2023-04-01T07:28:05;0.17;;;0.10;;
28613;SDS011;15806;53.548;9.964;2023-04-01T07:29:51;0.57;;;0.40;;
28613;SDS011;15806;53.548;9.964;2023-04-01T07:33:44;1.15;;;0.30;;
28613;SDS011;15806;53.548;9.964;2023-04-01T07:35:53;0.32;;;0.22;;
28613;SDS011;15806;53.548;9.964;2023-04-01T07:37:50;1.50;;;0.35;;
28613;SDS011;15806;53.548;9.964;2023-04-01T07:40:11;1.08;;;0.25;;
28613;SDS011;15806;53.548;9.964;2023-04-01T07:42:14;2.10;;;0.35;;
28613;SDS011;15806;53.548;9.964;2023-04-01T07:52:12;0.30;;;0.25;;
28613;SDS011;15806;53.548;9.964;2023-04-01T07:54:01;1.17;;;0.40;;
28613;SDS011;15806;53.548;9.964;2023-04-01T07:55:46;0.50;;;0.30;;
28613;SDS011;15806;53.548;9.964;2023-04-01T07:57:52;0.30;;;0.20;;
28613;SDS011;15806;53.548;9.964;2023-04-01T07:59:51;2.10;;;0.30;;
28613;SDS011;15806;53.548;9.964;2023-04-01T08:01:54;0.60;;;0.40;;
28613;SDS011;15806;53.548;9.964;2023-04-01T08:05:39;0.90;;;0.30;;
28613;SDS011;15806;53.548;9.964;2023-04-01T08:07:36;0.43;;;0.20;;
28613;SDS011;15806;53.548;9.964;2023-04-01T08:11:53;0.65;;;0.25;;
28613;SDS011;15806;53.548;9.964;2023-04-01T08:14:03;0.52;;;0.30;;
28613;SDS011;15806;53.548;9.964;2023-04-01T08:21:54;0.20;;;0.10;;
28613;SDS011;15806;53.548;9.964;2023-04-01T08:23:44;0.45;;;0.20;;
28613;SDS011;15806;53.548;9.964;2023-04-01T08:25:28;0.40;;;0.17;;
28613;SDS011;15806;53.548;9.964;2023-04-01T08:27:28;1.90;;;0.90;;
28613;SDS011;15806;53.548;9.964;2023-04-01T08:29:26;1.35;;;0.50;;
28613;SDS011;15806;53.548;9.964;2023-04-01T08:31:12;2.80;;;0.40;;
28613;SDS011;15806;53.548;9.964;2023-04-01T08:33:20;0.30;;;0.30;;
28613;SDS011;15806;53.548;9.964;2023-04-01T08:35:09;0.82;;;0.40;;
28613;SDS011;15806;53.548;9.964;2023-04-01T08:37:08;0.75;;;0.20;;
28613;SDS011;15806;53.548;9.964;2023-04-01T08:39:09;0.30;;;0.28;;
28613;SDS011;15806;53.548;9.964;2023-04-01T08:41:00;1.10;;;0.40;;
28613;SDS011;15806;53.548;9.964;2023-04-01T08:44:53;3.85;;;1.75;;
28613;SDS011;15806;53.548;9.964;2023-04-01T08:48:42;1.27;;;0.30;;
28613;SDS011;15806;53.548;9.964;2023-04-01T08:58:37;0.45;;;0.20;;
28613;SDS011;15806;53.548;9.964;2023-04-01T09:00:40;0.10;;;0.10;;
28613;SDS011;15806;53.548;9.964;2023-04-01T09:04:38;0.35;;;0.22;;
28613;SDS011;15806;53.548;9.964;2023-04-01T09:18:41;0.30;;;0.20;;
28613;SDS011;15806;53.548;9.964;2023-04-01T09:22:46;0.45;;;0.30;;
28613;SDS011;15806;53.548;9.964;2023-04-01T09:25:02;0.68;;;0.20;;
28613;SDS011;15806;53.548;9.964;2023-04-01T09:29:16;1.05;;;0.47;;
28613;SDS011;15806;53.548;9.964;2023-04-01T09:31:05;0.68;;;0.17;;
28613;SDS011;15806;53.548;9.964;2023-04-01T09:33:17;0.70;;;0.35;;
28613;SDS011;15806;53.548;9.964;2023-04-01T09:35:38;0.95;;;0.22;;
28613;SDS011;15806;53.548;9.964;2023-04-01T09:37:52;1.30;;;0.73;;
28613;SDS011;15806;53.548;9.964;2023-04-01T09:39:37;0.35;;;0.20;;
28613;SDS011;15806;53.548;9.964;2023-04-01T09:41:31;0.57;;;0.30;;
28613;SDS011;15806;53.548;9.964;2023-04-01T09:47:12;0.10;;;0.10;;
28613;SDS011;15806;53.548;9.964;2023-04-01T09:49:19;0.50;;;0.40;;
28613;SDS011;15806;53.548;9.964;2023-04-01T09:55:16;0.65;;;0.30;;
28613;SDS011;15806;53.548;9.964;2023-04-01T09:59:12;0.73;;;0.28;;
28613;SDS011;15806;53.548;9.964;2023-04-01T10:15:33;0.60;;;0.20;;
28613;SDS011;15806;53.548;9.964;2023-04-01T10:18:12;0.68;;;0.17;;
28613;SDS011;15806;53.548;9.964;2023-04-01T10:23:20;0.32;;;0.20;;
28613;SDS011;15806;53.548;9.964;2023-04-01T10:38:02;0.10;;;0.10;;
28613;SDS011;15806;53.548;9.964;2023-04-01T10:48:09;0.35;;;0.20;;
28613;SDS011;15806;53.548;9.964;2023-04-01T10:51:58;0.10;;;0.10;;
28613;SDS011;15806;53.548;9.964;2023-04-01T10:58:33;0.17;;;0.10;;
28613;SDS011;15806;53.548;9.964;2023-04-01T11:11:47;0.30;;;0.10;;
28613;SDS011;15806;53.548;9.964;2023-04-01T11:17:27;0.68;;;0.22;;
28613;SDS011;15806;53.548;9.964;2023-04-01T11:19:25;0.73;;;0.20;;
28613;SDS011;15806;53.548;9.964;2023-04-01T11:23:37;0.75;;;0.47;;
28613;SDS011;15806;53.548;9.964;2023-04-01T11:30:02;0.40;;;0.25;;
28613;SDS011;15806;53.548;9.964;2023-04-01T11:42:43;2.75;;;0.38;;
28613;SDS011;15806;53.548;9.964;2023-04-01T11:44:31;2.15;;;0.50;;
28613;SDS011;15806;53.548;9.964;2023-04-01T11:50:24;0.47;;;0.35;;
28613;SDS011;15806;53.548;9.964;2023-04-01T11:52:26;1.38;;;0.55;;
28613;SDS011;15806;53.548;9.964;2023-04-01T11:54:46;0.47;;;0.28;;
28613;SDS011;15806;53.548;9.964;2023-04-01T11:56:44;1.33;;;0.68;;
28613;SDS011;15806;53.548;9.964;2023-04-01T12:10:17;2.30;;;1.30;;
28613;SDS011;15806;53.548;9.964;2023-04-01T12:13:52;1.42;;;0.70;;
28613;SDS011;15806;53.548;9.964;2023-04-01T12:17:48;1.30;;;0.63;;
28613;SDS011;15806;53.548;9.964;2023-04-01T12:24:03;6.97;;;1.30;;
28613;SDS011;15806;53.548;9.964;2023-04-01T12:30:34;3.13;;;1.33;;
28613;SDS011;15806;53.548;9.964;2023-04-01T12:33:20;3.70;;;1.77;;
28613;SDS011;15806;53.548;9.964;2023-04-01T12:35:02;3.78;;;1.17;;
28613;SDS011;15806;53.548;9.964;2023-04-01T12:37:10;3.55;;;1.20;;
28613;SDS011;15806;53.548;9.964;2023-04-01T12:39:14;4.05;;;1.20;;
28613;SDS011;15806;53.548;9.964;2023-04-01T12:41:19;2.20;;;1.13;;
28613;SDS011;15806;53.548;9.964;2023-04-01T12:43:14;4.43;;;1.33;;
28613;SDS011;15806;53.548;9.964;2023-04-01T12:47:47;2.78;;;1.27;;
28613;SDS011;15806;53.548;9.964;2023-04-01T12:51:35;3.97;;;1.40;;
28613;SDS011;15806;53.548;9.964;2023-04-01T12:56:07;4.95;;;1.45;;
28613;SDS011;15806;53.548;9.964;2023-04-01T13:01:56;2.60;;;1.27;;
28613;SDS011;15806;53.548;9.964;2023-04-01T13:12:05;3.90;;;1.38;;
28613;SDS011;15806;53.548;9.964;2023-04-01T13:14:15;2.88;;;1.50;;
28613;SDS011;15806;53.548;9.964;2023-04-01T13:16:14;2.08;;;0.95;;
28613;SDS011;15806;53.548;9.964;2023-04-01T13:18:17;2.42;;;1.40;;
28613;SDS011;15806;53.548;9.964;2023-04-01T13:22:06;2.33;;;1.33;;
28613;SDS011;15806;53.548;9.964;2023-04-01T13:23:58;7.00;;;1.67;;
28613;SDS011;15806;53.548;9.964;2023-04-01T13:30:30;2.35;;;1.20;;
28613;SDS011;15806;53.548;9.964;2023-04-01T13:34:12;8.02;;;1.75;;
28613;SDS011;15806;53.548;9.964;2023-04-01T13:38:41;3.40;;;0.97;;
28613;SDS011;15806;53.548;9.964;2023-04-01T13:40:34;4.30;;;1.08;;
28613;SDS011;15806;53.548;9.964;2023-04-01T13:42:25;3.15;;;1.48;;
28613;SDS011;15806;53.548;9.964;2023-04-01T13:46:06;3.10;;;1.13;;
28613;SDS011;15806;53.548;9.964;2023-04-01T13:55:32;3.25;;;1.30;;
28613;SDS011;15806;53.548;9.964;2023-04-01T13:57:37;5.00;;;1.58;;
28613;SDS011;15806;53.548;9.964;2023-04-01T13:59:36;2.22;;;1.27;;
28613;SDS011;15806;53.548;9.964;2023-04-01T14:05:24;1.97;;;0.90;;
28613;SDS011;15806;53.548;9.964;2023-04-01T14:07:21;2.55;;;1.40;;
28613;SDS011;15806;53.548;9.964;2023-04-01T14:13:37;5.38;;;1.65;;
28613;SDS011;15806;53.548;9.964;2023-04-01T14:15:41;3.95;;;1.85;;
28613;SDS011;15806;53.548;9.964;2023-04-01T14:17:54;3.60;;;1.70;;
28613;SDS011;15806;53.548;9.964;2023-04-01T14:19:53;3.83;;;1.33;;
28613;SDS011;15806;53.548;9.964;2023-04-01T14:21:55;2.80;;;1.45;;
28613;SDS011;15806;53.548;9.964;2023-04-01T14:23:51;5.30;;;1.45;;
28613;SDS011;15806;53.548;9.964;2023-04-01T14:28:13;3.50;;;1.25;;
28613;SDS011;15806;53.548;9.964;2023-04-01T14:32:11;7.40;;;1.48;;
28613;SDS011;15806;53.548;9.964;2023-04-01T14:36:25;4.15;;;1.65;;
28613;SDS011;15806;53.548;9.964;2023-04-01T14:48:17;6.00;;;1.40;;
28613;SDS011;15806;53.548;9.964;2023-04-01T14:50:12;4.30;;;1.65;;
28613;SDS011;15806;53.548;9.964;2023-04-01T14:51:57;3.72;;;1.45;;
28613;SDS011;15806;53.548;9.964;2023-04-01T14:57:38;4.05;;;1.75;;
28613;SDS011;15806;53.548;9.964;2023-04-01T15:03:19;2.42;;;0.77;;
28613;SDS011;15806;53.548;9.964;2023-04-01T15:16:51;4.47;;;1.47;;
28613;SDS011;15806;53.548;9.964;2023-04-01T15:23:08;5.57;;;1.98;;
28613;SDS011;15806;53.548;9.964;2023-04-01T15:27:10;9.18;;;2.05;;
28613;SDS011;15806;53.548;9.964;2023-04-01T15:37:42;6.07;;;2.22;;
28613;SDS011;15806;53.548;9.964;2023-04-01T15:39:57;2.92;;;1.27;;
28613;SDS011;15806;53.548;9.964;2023-04-01T15:42:04;2.67;;;1.10;;
28613;SDS011;15806;53.548;9.964;2023-04-01T15:43:49;3.83;;;1.67;;
28613;SDS011;15806;53.548;9.964;2023-04-01T15:53:05;8.93;;;3.47;;
28613;SDS011;15806;53.548;9.964;2023-04-01T15:55:19;6.40;;;2.10;;
28613;SDS011;15806;53.548;9.964;2023-04-01T16:00:06;6.40;;;1.90;;
28613;SDS011;15806;53.548;9.964;2023-04-01T16:02:46;4.32;;;2.05;;
28613;SDS011;15806;53.548;9.964;2023-04-01T16:04:36;6.07;;;2.15;;